sensor_id;sensor_type;location;lat;lon;timestamp;P1;durP1;ratioP1;P2;durP2;ratioP2
21152;SDS011;10734;44.792;20.482;2023-05-21T00:02:19;9.52;;;6.07;;
21152;SDS011;10734;44.792;20.482;2023-05-21T00:04:46;10.45;;;6.50;;
21152;SDS011;10734;44.792;20.482;2023-05-21T00:07:13;10.13;;;6.80;;
21152;SDS011;10734;44.792;20.482;2023-05-21T00:09:40;9.95;;;5.97;;
21152;SDS011;10734;44.792;20.482;2023-05-21T00:12:07;9.93;;;6.50;;
21152;SDS011;10734;44.792;20.482;2023-05-21T00:14:34;13.90;;;6.20;;
21152;SDS011;10734;44.792;20.482;2023-05-21T00:17:00;12.45;;;6.88;;
21152;SDS011;10734;44.792;20.482;2023-05-21T00:19:27;14.23;;;6.28;;
21152;SDS011;10734;44.792;20.482;2023-05-21T00:21:54;9.43;;;5.85;;
21152;SDS011;10734;44.792;20.482;2023-05-21T00:24:21;9.20;;;6.80;;
21152;SDS011;10734;44.792;20.482;2023-05-21T00:26:47;12.25;;;6.90;;
21152;SDS011;10734;44.792;20.482;2023-05-21T00:29:14;10.45;;;6.97;;
21152;SDS011;10734;44.792;20.482;2023-05-21T00:31:40;9.77;;;6.07;;
21152;SDS011;10734;44.792;20.482;2023-05-21T00:34:07;9.00;;;6.65;;
21152;SDS011;10734;44.792;20.482;2023-05-21T00:36:34;11.18;;;6.53;;
21152;SDS011;10734;44.792;20.482;2023-05-21T00:39:00;10.23;;;6.97;;
21152;SDS011;10734;44.792;20.482;2023-05-21T00:41:27;11.77;;;6.72;;
21152;SDS011;10734;44.792;20.482;2023-05-21T00:43:55;10.90;;;6.55;;
21152;SDS011;10734;44.792;20.482;2023-05-21T00:46:22;15.38;;;6.78;;
21152;SDS011;10734;44.792;20.482;2023-05-21T00:48:49;12.93;;;7.00;;
21152;SDS011;10734;44.792;20.482;2023-05-21T00:51:16;14.15;;;7.13;;
21152;SDS011;10734;44.792;20.482;2023-05-21T00:53:44;10.27;;;6.65;;
21152;SDS011;10734;44.792;20.482;2023-05-21T00:56:11;11.45;;;6.57;;
21152;SDS011;10734;44.792;20.482;2023-05-21T00:58:38;8.77;;;6.65;;
21152;SDS011;10734;44.792;20.482;2023-05-21T01:01:06;8.77;;;6.72;;
21152;SDS011;10734;44.792;20.482;2023-05-21T01:03:39;11.48;;;6.68;;
21152;SDS011;10734;44.792;20.482;2023-05-21T01:06:06;14.57;;;6.90;;
21152;SDS011;10734;44.792;20.482;2023-05-21T01:08:34;12.23;;;6.45;;
21152;SDS011;10734;44.792;20.482;2023-05-21T01:11:01;13.05;;;7.43;;
21152;SDS011;10734;44.792;20.482;2023-05-21T01:13:28;10.45;;;6.93;;
21152;SDS011;10734;44.792;20.482;2023-05-21T01:15:55;16.02;;;7.20;;
21152;SDS011;10734;44.792;20.482;2023-05-21T01:18:24;10.73;;;6.55;;
21152;SDS011;10734;44.792;20.482;2023-05-21T01:20:51;15.40;;;7.20;;
21152;SDS011;10734;44.792;20.482;2023-05-21T01:23:19;12.00;;;6.57;;
21152;SDS011;10734;44.792;20.482;2023-05-21T01:25:45;13.75;;;7.78;;
21152;SDS011;10734;44.792;20.482;2023-05-21T01:28:12;11.35;;;6.68;;
21152;SDS011;10734;44.792;20.482;2023-05-21T01:30:40;10.52;;;6.90;;
21152;SDS011;10734;44.792;20.482;2023-05-21T01:33:10;11.77;;;6.93;;
21152;SDS011;10734;44.792;20.482;2023-05-21T01:35:40;13.38;;;6.80;;
21152;SDS011;10734;44.792;20.482;2023-05-21T01:38:13;8.50;;;6.32;;
21152;SDS011;10734;44.792;20.482;2023-05-21T01:43:12;13.23;;;7.15;;
21152;SDS011;10734;44.792;20.482;2023-05-21T01:45:39;17.13;;;7.55;;
21152;SDS011;10734;44.792;20.482;2023-05-21T01:48:08;22.08;;;7.57;;
21152;SDS011;10734;44.792;20.482;2023-05-21T01:50:36;10.20;;;7.18;;
21152;SDS011;10734;44.792;20.482;2023-05-21T01:53:03;11.95;;;6.60;;
21152;SDS011;10734;44.792;20.482;2023-05-21T01:55:31;13.57;;;7.00;;
21152;SDS011;10734;44.792;20.482;2023-05-21T01:57:58;9.93;;;6.85;;
21152;SDS011;10734;44.792;20.482;2023-05-21T02:00:27;9.00;;;6.45;;
21152;SDS011;10734;44.792;20.482;2023-05-21T02:02:54;10.32;;;6.55;;
21152;SDS011;10734;44.792;20.482;2023-05-21T02:05:21;11.48;;;7.30;;
21152;SDS011;10734;44.792;20.482;2023-05-21T02:07:48;17.70;;;6.82;;
21152;SDS011;10734;44.792;20.482;2023-05-21T02:10:16;12.98;;;6.80;;
21152;SDS011;10734;44.792;20.482;2023-05-21T02:12:43;12.25;;;6.78;;
21152;SDS011;10734;44.792;20.482;2023-05-21T02:15:09;14.65;;;7.30;;
21152;SDS011;10734;44.792;20.482;2023-05-21T02:17:36;15.10;;;7.50;;
21152;SDS011;10734;44.792;20.482;2023-05-21T02:20:04;11.30;;;7.35;;
21152;SDS011;10734;44.792;20.482;2023-05-21T02:22:37;10.70;;;7.53;;
21152;SDS011;10734;44.792;20.482;2023-05-21T02:25:05;18.55;;;7.93;;
21152;SDS011;10734;44.792;20.482;2023-05-21T02:27:32;10.23;;;7.13;;
21152;SDS011;10734;44.792;20.482;2023-05-21T02:30:00;12.75;;;6.65;;
21152;SDS011;10734;44.792;20.482;2023-05-21T02:32:27;10.77;;;6.97;;
21152;SDS011;10734;44.792;20.482;2023-05-21T02:34:53;17.17;;;7.85;;
21152;SDS011;10734;44.792;20.482;2023-05-21T02:37:20;11.63;;;7.25;;
21152;SDS011;10734;44.792;20.482;2023-05-21T02:39:47;9.00;;;7.30;;
21152;SDS011;10734;44.792;20.482;2023-05-21T02:42:13;14.65;;;7.13;;
21152;SDS011;10734;44.792;20.482;2023-05-21T02:44:40;9.13;;;6.63;;
21152;SDS011;10734;44.792;20.482;2023-05-21T02:47:06;12.90;;;6.93;;
21152;SDS011;10734;44.792;20.482;2023-05-21T02:49:35;15.02;;;7.10;;
21152;SDS011;10734;44.792;20.482;2023-05-21T02:52:02;13.23;;;6.30;;
21152;SDS011;10734;44.792;20.482;2023-05-21T02:54:28;14.00;;;7.07;;
21152;SDS011;10734;44.792;20.482;2023-05-21T02:56:55;11.80;;;6.57;;
21152;SDS011;10734;44.792;20.482;2023-05-21T02:59:22;10.25;;;6.80;;
21152;SDS011;10734;44.792;20.482;2023-05-21T03:01:48;10.90;;;6.32;;
21152;SDS011;10734;44.792;20.482;2023-05-21T03:04:15;13.35;;;6.30;;
21152;SDS011;10734;44.792;20.482;2023-05-21T03:06:47;15.93;;;6.95;;
21152;SDS011;10734;44.792;20.482;2023-05-21T03:09:14;11.00;;;6.90;;
21152;SDS011;10734;44.792;20.482;2023-05-21T03:11:41;10.43;;;6.90;;
21152;SDS011;10734;44.792;20.482;2023-05-21T03:14:08;9.90;;;7.10;;
21152;SDS011;10734;44.792;20.482;2023-05-21T03:16:35;11.88;;;7.55;;
21152;SDS011;10734;44.792;20.482;2023-05-21T03:19:03;9.32;;;7.10;;
21152;SDS011;10734;44.792;20.482;2023-05-21T03:21:29;16.83;;;7.50;;
21152;SDS011;10734;44.792;20.482;2023-05-21T03:23:57;12.77;;;6.90;;
21152;SDS011;10734;44.792;20.482;2023-05-21T03:26:24;10.18;;;7.25;;
21152;SDS011;10734;44.792;20.482;2023-05-21T03:28:54;11.95;;;6.65;;
21152;SDS011;10734;44.792;20.482;2023-05-21T03:31:21;20.30;;;7.38;;
21152;SDS011;10734;44.792;20.482;2023-05-21T03:33:48;11.80;;;6.57;;
21152;SDS011;10734;44.792;20.482;2023-05-21T03:36:14;10.95;;;7.20;;
21152;SDS011;10734;44.792;20.482;2023-05-21T03:38:41;9.57;;;6.75;;
21152;SDS011;10734;44.792;20.482;2023-05-21T03:41:08;11.27;;;6.88;;
21152;SDS011;10734;44.792;20.482;2023-05-21T03:43:35;9.57;;;7.38;;
21152;SDS011;10734;44.792;20.482;2023-05-21T03:46:02;9.90;;;6.93;;
21152;SDS011;10734;44.792;20.482;2023-05-21T03:48:28;11.13;;;7.15;;
21152;SDS011;10734;44.792;20.482;2023-05-21T03:50:55;11.68;;;6.85;;
21152;SDS011;10734;44.792;20.482;2023-05-21T03:53:23;12.27;;;7.68;;
21152;SDS011;10734;44.792;20.482;2023-05-21T03:55:49;9.43;;;7.10;;
21152;SDS011;10734;44.792;20.482;2023-05-21T03:58:21;9.13;;;6.65;;
21152;SDS011;10734;44.792;20.482;2023-05-21T04:00:47;9.57;;;6.88;;
21152;SDS011;10734;44.792;20.482;2023-05-21T04:03:14;12.70;;;7.70;;
21152;SDS011;10734;44.792;20.482;2023-05-21T04:05:41;13.60;;;7.82;;
21152;SDS011;10734;44.792;20.482;2023-05-21T04:08:08;10.10;;;7.03;;
21152;SDS011;10734;44.792;20.482;2023-05-21T04:10:34;9.93;;;6.75;;
21152;SDS011;10734;44.792;20.482;2023-05-21T04:13:01;11.05;;;6.95;;
21152;SDS011;10734;44.792;20.482;2023-05-21T04:15:27;10.18;;;7.25;;
21152;SDS011;10734;44.792;20.482;2023-05-21T04:17:54;10.13;;;7.32;;
21152;SDS011;10734;44.792;20.482;2023-05-21T04:20:21;10.38;;;7.53;;
21152;SDS011;10734;44.792;20.482;2023-05-21T04:22:47;11.75;;;7.57;;
21152;SDS011;10734;44.792;20.482;2023-05-21T04:25:14;12.80;;;7.60;;
21152;SDS011;10734;44.792;20.482;2023-05-21T04:27:40;14.70;;;7.70;;
21152;SDS011;10734;44.792;20.482;2023-05-21T04:30:08;14.38;;;7.30;;
21152;SDS011;10734;44.792;20.482;2023-05-21T04:32:36;11.27;;;6.97;;
21152;SDS011;10734;44.792;20.482;2023-05-21T04:35:03;14.63;;;8.02;;
21152;SDS011;10734;44.792;20.482;2023-05-21T04:37:30;14.95;;;9.13;;
21152;SDS011;10734;44.792;20.482;2023-05-21T04:40:00;17.85;;;10.15;;
21152;SDS011;10734;44.792;20.482;2023-05-21T04:42:29;15.65;;;8.80;;
21152;SDS011;10734;44.792;20.482;2023-05-21T04:44:56;11.75;;;8.10;;
21152;SDS011;10734;44.792;20.482;2023-05-21T04:47:24;11.25;;;7.85;;
21152;SDS011;10734;44.792;20.482;2023-05-21T04:49:51;8.43;;;6.82;;
21152;SDS011;10734;44.792;20.482;2023-05-21T04:52:19;12.18;;;6.00;;
21152;SDS011;10734;44.792;20.482;2023-05-21T04:54:46;12.65;;;6.75;;
21152;SDS011;10734;44.792;20.482;2023-05-21T04:57:13;12.50;;;7.07;;
21152;SDS011;10734;44.792;20.482;2023-05-21T04:59:39;11.48;;;7.35;;
21152;SDS011;10734;44.792;20.482;2023-05-21T05:02:06;11.50;;;7.00;;
21152;SDS011;10734;44.792;20.482;2023-05-21T05:04:33;11.57;;;7.30;;
21152;SDS011;10734;44.792;20.482;2023-05-21T05:07:00;10.45;;;7.38;;
21152;SDS011;10734;44.792;20.482;2023-05-21T05:09:27;12.65;;;7.28;;
21152;SDS011;10734;44.792;20.482;2023-05-21T05:11:55;9.40;;;7.25;;
21152;SDS011;10734;44.792;20.482;2023-05-21T05:14:22;11.82;;;7.30;;
21152;SDS011;10734;44.792;20.482;2023-05-21T05:16:48;9.70;;;7.28;;
21152;SDS011;10734;44.792;20.482;2023-05-21T05:19:15;12.35;;;7.35;;
21152;SDS011;10734;44.792;20.482;2023-05-21T05:21:42;17.10;;;8.15;;
21152;SDS011;10734;44.792;20.482;2023-05-21T05:24:09;14.05;;;7.13;;
21152;SDS011;10734;44.792;20.482;2023-05-21T05:26:36;10.23;;;6.53;;
21152;SDS011;10734;44.792;20.482;2023-05-21T05:29:03;10.98;;;7.30;;
21152;SDS011;10734;44.792;20.482;2023-05-21T05:31:29;13.95;;;6.88;;
21152;SDS011;10734;44.792;20.482;2023-05-21T05:33:56;10.23;;;7.53;;
21152;SDS011;10734;44.792;20.482;2023-05-21T05:36:23;11.95;;;6.45;;
21152;SDS011;10734;44.792;20.482;2023-05-21T05:38:51;18.90;;;8.00;;
21152;SDS011;10734;44.792;20.482;2023-05-21T05:41:17;12.55;;;8.05;;
21152;SDS011;10734;44.792;20.482;2023-05-21T05:43:44;12.07;;;7.60;;
21152;SDS011;10734;44.792;20.482;2023-05-21T05:46:12;15.07;;;8.00;;
21152;SDS011;10734;44.792;20.482;2023-05-21T05:48:39;10.93;;;7.60;;
21152;SDS011;10734;44.792;20.482;2023-05-21T05:51:06;11.10;;;7.28;;
21152;SDS011;10734;44.792;20.482;2023-05-21T05:53:33;13.05;;;6.68;;
21152;SDS011;10734;44.792;20.482;2023-05-21T05:56:00;15.52;;;6.72;;
21152;SDS011;10734;44.792;20.482;2023-05-21T05:58:28;12.85;;;7.95;;
21152;SDS011;10734;44.792;20.482;2023-05-21T06:00:55;12.98;;;6.60;;
21152;SDS011;10734;44.792;20.482;2023-05-21T06:03:21;12.73;;;7.35;;
21152;SDS011;10734;44.792;20.482;2023-05-21T06:05:48;10.63;;;7.20;;
21152;SDS011;10734;44.792;20.482;2023-05-21T06:08:15;10.27;;;6.25;;
21152;SDS011;10734;44.792;20.482;2023-05-21T06:10:42;15.38;;;7.47;;
21152;SDS011;10734;44.792;20.482;2023-05-21T06:13:08;9.75;;;6.90;;
21152;SDS011;10734;44.792;20.482;2023-05-21T06:15:35;12.73;;;6.32;;
21152;SDS011;10734;44.792;20.482;2023-05-21T06:18:03;13.70;;;7.57;;
21152;SDS011;10734;44.792;20.482;2023-05-21T06:20:29;13.23;;;6.93;;
21152;SDS011;10734;44.792;20.482;2023-05-21T06:22:56;11.10;;;6.93;;
21152;SDS011;10734;44.792;20.482;2023-05-21T06:25:23;8.65;;;6.18;;
21152;SDS011;10734;44.792;20.482;2023-05-21T06:27:51;9.52;;;5.60;;
21152;SDS011;10734;44.792;20.482;2023-05-21T06:30:17;13.88;;;6.40;;
21152;SDS011;10734;44.792;20.482;2023-05-21T06:32:44;11.93;;;6.03;;
21152;SDS011;10734;44.792;20.482;2023-05-21T06:35:11;9.63;;;5.25;;
21152;SDS011;10734;44.792;20.482;2023-05-21T06:37:38;11.98;;;5.75;;
21152;SDS011;10734;44.792;20.482;2023-05-21T06:40:05;10.00;;;5.70;;
21152;SDS011;10734;44.792;20.482;2023-05-21T06:42:32;10.63;;;6.70;;
21152;SDS011;10734;44.792;20.482;2023-05-21T06:45:00;11.07;;;5.82;;
21152;SDS011;10734;44.792;20.482;2023-05-21T06:47:28;14.95;;;6.40;;
21152;SDS011;10734;44.792;20.482;2023-05-21T06:49:55;9.68;;;6.53;;
21152;SDS011;10734;44.792;20.482;2023-05-21T06:52:22;8.25;;;6.28;;
21152;SDS011;10734;44.792;20.482;2023-05-21T06:54:49;10.07;;;6.07;;
21152;SDS011;10734;44.792;20.482;2023-05-21T06:57:15;16.38;;;6.47;;
21152;SDS011;10734;44.792;20.482;2023-05-21T06:59:44;9.45;;;5.72;;
21152;SDS011;10734;44.792;20.482;2023-05-21T07:02:11;8.77;;;5.63;;
21152;SDS011;10734;44.792;20.482;2023-05-21T07:04:38;13.55;;;5.95;;
21152;SDS011;10734;44.792;20.482;2023-05-21T07:07:05;10.40;;;5.13;;
21152;SDS011;10734;44.792;20.482;2023-05-21T07:09:32;13.80;;;5.05;;
21152;SDS011;10734;44.792;20.482;2023-05-21T07:11:59;9.25;;;5.85;;
21152;SDS011;10734;44.792;20.482;2023-05-21T07:14:26;9.52;;;5.32;;
21152;SDS011;10734;44.792;20.482;2023-05-21T07:16:53;11.10;;;5.63;;
21152;SDS011;10734;44.792;20.482;2023-05-21T07:19:23;12.82;;;5.88;;
21152;SDS011;10734;44.792;20.482;2023-05-21T07:21:50;9.68;;;5.97;;
21152;SDS011;10734;44.792;20.482;2023-05-21T07:24:17;9.68;;;5.55;;
21152;SDS011;10734;44.792;20.482;2023-05-21T07:26:44;10.90;;;6.15;;
21152;SDS011;10734;44.792;20.482;2023-05-21T07:29:11;10.85;;;5.00;;
21152;SDS011;10734;44.792;20.482;2023-05-21T07:31:38;8.13;;;5.68;;
21152;SDS011;10734;44.792;20.482;2023-05-21T07:34:05;8.57;;;5.15;;
21152;SDS011;10734;44.792;20.482;2023-05-21T07:36:32;10.27;;;5.38;;
21152;SDS011;10734;44.792;20.482;2023-05-21T07:38:59;10.10;;;5.97;;
21152;SDS011;10734;44.792;20.482;2023-05-21T07:41:26;9.38;;;5.28;;
21152;SDS011;10734;44.792;20.482;2023-05-21T07:43:53;11.95;;;5.57;;
21152;SDS011;10734;44.792;20.482;2023-05-21T07:46:20;9.88;;;5.20;;
21152;SDS011;10734;44.792;20.482;2023-05-21T07:48:47;8.18;;;5.15;;
21152;SDS011;10734;44.792;20.482;2023-05-21T07:51:15;12.75;;;5.07;;
21152;SDS011;10734;44.792;20.482;2023-05-21T07:53:43;6.97;;;5.03;;
21152;SDS011;10734;44.792;20.482;2023-05-21T07:56:09;12.43;;;5.93;;
21152;SDS011;10734;44.792;20.482;2023-05-21T07:58:37;8.60;;;5.30;;
21152;SDS011;10734;44.792;20.482;2023-05-21T08:01:04;9.25;;;4.57;;
21152;SDS011;10734;44.792;20.482;2023-05-21T08:03:31;8.43;;;5.20;;
21152;SDS011;10734;44.792;20.482;2023-05-21T08:05:59;8.77;;;4.80;;
21152;SDS011;10734;44.792;20.482;2023-05-21T08:08:26;10.52;;;5.15;;
21152;SDS011;10734;44.792;20.482;2023-05-21T08:10:54;11.20;;;5.50;;
21152;SDS011;10734;44.792;20.482;2023-05-21T08:13:21;12.70;;;5.20;;
21152;SDS011;10734;44.792;20.482;2023-05-21T08:15:48;12.90;;;5.75;;
21152;SDS011;10734;44.792;20.482;2023-05-21T08:18:18;9.30;;;5.00;;
21152;SDS011;10734;44.792;20.482;2023-05-21T08:20:44;9.40;;;4.50;;
21152;SDS011;10734;44.792;20.482;2023-05-21T08:23:11;10.95;;;5.05;;
21152;SDS011;10734;44.792;20.482;2023-05-21T08:25:38;7.45;;;4.75;;
21152;SDS011;10734;44.792;20.482;2023-05-21T08:28:05;9.10;;;5.70;;
21152;SDS011;10734;44.792;20.482;2023-05-21T08:30:33;9.27;;;5.03;;
21152;SDS011;10734;44.792;20.482;2023-05-21T08:33:00;9.38;;;5.78;;
21152;SDS011;10734;44.792;20.482;2023-05-21T08:35:27;10.43;;;5.10;;
21152;SDS011;10734;44.792;20.482;2023-05-21T08:37:55;6.78;;;4.85;;
21152;SDS011;10734;44.792;20.482;2023-05-21T08:40:22;9.50;;;5.20;;
21152;SDS011;10734;44.792;20.482;2023-05-21T08:42:49;15.43;;;6.00;;
21152;SDS011;10734;44.792;20.482;2023-05-21T08:45:20;10.05;;;5.45;;
21152;SDS011;10734;44.792;20.482;2023-05-21T08:47:55;12.60;;;5.78;;
21152;SDS011;10734;44.792;20.482;2023-05-21T08:50:26;7.57;;;5.65;;
21152;SDS011;10734;44.792;20.482;2023-05-21T08:52:54;8.93;;;5.35;;
21152;SDS011;10734;44.792;20.482;2023-05-21T08:55:20;10.20;;;5.30;;
21152;SDS011;10734;44.792;20.482;2023-05-21T08:57:48;10.60;;;5.95;;
21152;SDS011;10734;44.792;20.482;2023-05-21T09:00:16;8.18;;;5.75;;
21152;SDS011;10734;44.792;20.482;2023-05-21T09:02:46;8.05;;;5.82;;
21152;SDS011;10734;44.792;20.482;2023-05-21T09:05:13;10.27;;;5.70;;
21152;SDS011;10734;44.792;20.482;2023-05-21T09:07:42;12.05;;;5.93;;
21152;SDS011;10734;44.792;20.482;2023-05-21T09:10:17;11.85;;;5.25;;
21152;SDS011;10734;44.792;20.482;2023-05-21T09:13:10;11.55;;;5.82;;
21152;SDS011;10734;44.792;20.482;2023-05-21T09:15:39;8.85;;;5.03;;
21152;SDS011;10734;44.792;20.482;2023-05-21T09:18:07;6.90;;;4.85;;
21152;SDS011;10734;44.792;20.482;2023-05-21T09:20:34;8.10;;;5.00;;
21152;SDS011;10734;44.792;20.482;2023-05-21T09:23:03;16.95;;;5.60;;
21152;SDS011;10734;44.792;20.482;2023-05-21T09:25:32;10.10;;;5.05;;
21152;SDS011;10734;44.792;20.482;2023-05-21T09:27:59;7.35;;;5.30;;
21152;SDS011;10734;44.792;20.482;2023-05-21T09:30:26;12.48;;;5.00;;
21152;SDS011;10734;44.792;20.482;2023-05-21T09:33:00;11.10;;;5.10;;
21152;SDS011;10734;44.792;20.482;2023-05-21T09:35:27;6.97;;;4.65;;
21152;SDS011;10734;44.792;20.482;2023-05-21T09:37:54;7.50;;;4.85;;
21152;SDS011;10734;44.792;20.482;2023-05-21T09:40:23;8.30;;;4.95;;
21152;SDS011;10734;44.792;20.482;2023-05-21T09:42:51;13.23;;;5.50;;
21152;SDS011;10734;44.792;20.482;2023-05-21T09:45:20;7.85;;;5.30;;
21152;SDS011;10734;44.792;20.482;2023-05-21T09:47:49;9.00;;;4.65;;
21152;SDS011;10734;44.792;20.482;2023-05-21T09:50:17;8.00;;;5.10;;
21152;SDS011;10734;44.792;20.482;2023-05-21T09:52:49;8.90;;;4.65;;
21152;SDS011;10734;44.792;20.482;2023-05-21T09:55:21;13.15;;;5.30;;
21152;SDS011;10734;44.792;20.482;2023-05-21T09:57:49;8.82;;;4.82;;
21152;SDS011;10734;44.792;20.482;2023-05-21T10:02:56;12.20;;;5.40;;
21152;SDS011;10734;44.792;20.482;2023-05-21T10:05:27;9.23;;;4.82;;
21152;SDS011;10734;44.792;20.482;2023-05-21T10:08:00;9.48;;;5.57;;
21152;SDS011;10734;44.792;20.482;2023-05-21T10:10:30;15.63;;;5.70;;
21152;SDS011;10734;44.792;20.482;2023-05-21T10:13:00;11.30;;;5.68;;
21152;SDS011;10734;44.792;20.482;2023-05-21T10:15:35;5.65;;;4.82;;
21152;SDS011;10734;44.792;20.482;2023-05-21T10:18:05;11.30;;;4.75;;
21152;SDS011;10734;44.792;20.482;2023-05-21T10:20:34;16.30;;;5.10;;
21152;SDS011;10734;44.792;20.482;2023-05-21T10:23:02;6.68;;;5.05;;
21152;SDS011;10734;44.792;20.482;2023-05-21T10:25:31;9.80;;;5.30;;
21152;SDS011;10734;44.792;20.482;2023-05-21T10:27:58;12.82;;;5.35;;
21152;SDS011;10734;44.792;20.482;2023-05-21T10:30:25;8.05;;;4.80;;
21152;SDS011;10734;44.792;20.482;2023-05-21T10:32:54;10.65;;;4.97;;
21152;SDS011;10734;44.792;20.482;2023-05-21T10:35:22;10.70;;;5.32;;
21152;SDS011;10734;44.792;20.482;2023-05-21T10:37:50;11.52;;;5.65;;
21152;SDS011;10734;44.792;20.482;2023-05-21T10:40:19;8.30;;;5.60;;
21152;SDS011;10734;44.792;20.482;2023-05-21T10:45:30;10.63;;;6.03;;
21152;SDS011;10734;44.792;20.482;2023-05-21T11:01:53;8.75;;;5.07;;
21152;SDS011;10734;44.792;20.482;2023-05-21T11:04:25;12.20;;;6.18;;
21152;SDS011;10734;44.792;20.482;2023-05-21T11:06:53;9.23;;;5.70;;
21152;SDS011;10734;44.792;20.482;2023-05-21T11:09:20;11.68;;;5.15;;
21152;SDS011;10734;44.792;20.482;2023-05-21T11:11:51;11.30;;;5.50;;
21152;SDS011;10734;44.792;20.482;2023-05-21T11:14:38;13.18;;;5.20;;
21152;SDS011;10734;44.792;20.482;2023-05-21T11:22:24;10.15;;;5.13;;
21152;SDS011;10734;44.792;20.482;2023-05-21T11:24:52;10.65;;;5.00;;
21152;SDS011;10734;44.792;20.482;2023-05-21T11:27:36;9.40;;;5.05;;
21152;SDS011;10734;44.792;20.482;2023-05-21T11:35:35;7.25;;;4.53;;
21152;SDS011;10734;44.792;20.482;2023-05-21T11:38:04;13.65;;;5.05;;
21152;SDS011;10734;44.792;20.482;2023-05-21T11:40:35;9.38;;;4.82;;
21152;SDS011;10734;44.792;20.482;2023-05-21T11:43:02;12.20;;;4.68;;
21152;SDS011;10734;44.792;20.482;2023-05-21T11:45:31;7.65;;;4.80;;
21152;SDS011;10734;44.792;20.482;2023-05-21T11:47:59;8.07;;;5.35;;
21152;SDS011;10734;44.792;20.482;2023-05-21T11:50:27;11.13;;;5.72;;
21152;SDS011;10734;44.792;20.482;2023-05-21T11:52:56;8.52;;;5.13;;
21152;SDS011;10734;44.792;20.482;2023-05-21T11:55:26;11.82;;;5.40;;
21152;SDS011;10734;44.792;20.482;2023-05-21T11:57:53;10.02;;;5.05;;
21152;SDS011;10734;44.792;20.482;2023-05-21T12:00:21;12.35;;;5.03;;
21152;SDS011;10734;44.792;20.482;2023-05-21T12:02:51;9.75;;;4.95;;
21152;SDS011;10734;44.792;20.482;2023-05-21T12:05:19;6.40;;;4.75;;
21152;SDS011;10734;44.792;20.482;2023-05-21T12:07:48;15.30;;;5.40;;
21152;SDS011;10734;44.792;20.482;2023-05-21T12:10:21;9.30;;;4.32;;
21152;SDS011;10734;44.792;20.482;2023-05-21T12:12:49;7.82;;;4.10;;
21152;SDS011;10734;44.792;20.482;2023-05-21T12:15:22;8.40;;;4.65;;
21152;SDS011;10734;44.792;20.482;2023-05-21T12:17:50;10.60;;;4.78;;
21152;SDS011;10734;44.792;20.482;2023-05-21T12:20:18;12.68;;;4.50;;
21152;SDS011;10734;44.792;20.482;2023-05-21T12:22:47;11.00;;;5.15;;
21152;SDS011;10734;44.792;20.482;2023-05-21T12:25:16;8.15;;;4.60;;
21152;SDS011;10734;44.792;20.482;2023-05-21T12:27:45;9.10;;;4.97;;
21152;SDS011;10734;44.792;20.482;2023-05-21T12:30:14;14.93;;;4.95;;
21152;SDS011;10734;44.792;20.482;2023-05-21T12:32:41;9.63;;;4.78;;
21152;SDS011;10734;44.792;20.482;2023-05-21T12:35:23;10.90;;;5.18;;
21152;SDS011;10734;44.792;20.482;2023-05-21T12:37:50;8.32;;;4.63;;
21152;SDS011;10734;44.792;20.482;2023-05-21T12:40:18;9.73;;;4.10;;
21152;SDS011;10734;44.792;20.482;2023-05-21T12:42:45;8.77;;;4.65;;
21152;SDS011;10734;44.792;20.482;2023-05-21T12:45:13;6.70;;;4.55;;
21152;SDS011;10734;44.792;20.482;2023-05-21T12:47:40;10.38;;;4.90;;
21152;SDS011;10734;44.792;20.482;2023-05-21T12:50:07;7.82;;;4.15;;
21152;SDS011;10734;44.792;20.482;2023-05-21T12:52:38;10.55;;;4.70;;
21152;SDS011;10734;44.792;20.482;2023-05-21T12:55:07;11.70;;;4.63;;
21152;SDS011;10734;44.792;20.482;2023-05-21T12:57:36;5.80;;;3.75;;
21152;SDS011;10734;44.792;20.482;2023-05-21T13:00:07;11.07;;;4.43;;
21152;SDS011;10734;44.792;20.482;2023-05-21T13:02:42;10.10;;;4.85;;
21152;SDS011;10734;44.792;20.482;2023-05-21T13:05:14;7.50;;;4.35;;
21152;SDS011;10734;44.792;20.482;2023-05-21T13:07:45;8.82;;;4.63;;
21152;SDS011;10734;44.792;20.482;2023-05-21T13:10:14;7.28;;;4.45;;
21152;SDS011;10734;44.792;20.482;2023-05-21T13:12:42;5.95;;;4.70;;
21152;SDS011;10734;44.792;20.482;2023-05-21T13:15:09;13.52;;;4.57;;
21152;SDS011;10734;44.792;20.482;2023-05-21T13:17:37;8.77;;;4.25;;
21152;SDS011;10734;44.792;20.482;2023-05-21T13:22:38;10.65;;;4.20;;
21152;SDS011;10734;44.792;20.482;2023-05-21T13:25:09;9.40;;;4.23;;
21152;SDS011;10734;44.792;20.482;2023-05-21T13:27:37;9.50;;;4.00;;
21152;SDS011;10734;44.792;20.482;2023-05-21T13:30:05;11.23;;;4.05;;
21152;SDS011;10734;44.792;20.482;2023-05-21T13:32:33;11.07;;;4.22;;
21152;SDS011;10734;44.792;20.482;2023-05-21T13:35:01;10.18;;;4.10;;
21152;SDS011;10734;44.792;20.482;2023-05-21T13:37:27;6.68;;;4.45;;
21152;SDS011;10734;44.792;20.482;2023-05-21T13:39:54;7.45;;;4.53;;
21152;SDS011;10734;44.792;20.482;2023-05-21T13:42:22;9.73;;;3.92;;
21152;SDS011;10734;44.792;20.482;2023-05-21T13:44:49;6.95;;;4.53;;
21152;SDS011;10734;44.792;20.482;2023-05-21T13:47:16;12.50;;;4.38;;
21152;SDS011;10734;44.792;20.482;2023-05-21T13:49:43;12.13;;;4.30;;
21152;SDS011;10734;44.792;20.482;2023-05-21T13:52:10;5.70;;;4.05;;
21152;SDS011;10734;44.792;20.482;2023-05-21T13:54:38;13.50;;;4.53;;
21152;SDS011;10734;44.792;20.482;2023-05-21T13:57:05;12.32;;;4.47;;
21152;SDS011;10734;44.792;20.482;2023-05-21T13:59:32;7.25;;;3.88;;
21152;SDS011;10734;44.792;20.482;2023-05-21T14:01:59;6.50;;;4.28;;
21152;SDS011;10734;44.792;20.482;2023-05-21T14:04:26;7.60;;;4.10;;
21152;SDS011;10734;44.792;20.482;2023-05-21T14:06:54;6.43;;;4.40;;
21152;SDS011;10734;44.792;20.482;2023-05-21T14:09:21;8.32;;;4.03;;
21152;SDS011;10734;44.792;20.482;2023-05-21T14:11:49;8.90;;;4.20;;
21152;SDS011;10734;44.792;20.482;2023-05-21T14:14:16;9.60;;;4.60;;
21152;SDS011;10734;44.792;20.482;2023-05-21T14:16:47;7.15;;;3.95;;
21152;SDS011;10734;44.792;20.482;2023-05-21T14:19:16;7.53;;;3.83;;
21152;SDS011;10734;44.792;20.482;2023-05-21T14:21:43;9.10;;;4.25;;
21152;SDS011;10734;44.792;20.482;2023-05-21T14:24:11;8.35;;;4.53;;
21152;SDS011;10734;44.792;20.482;2023-05-21T14:26:41;17.67;;;5.05;;
21152;SDS011;10734;44.792;20.482;2023-05-21T14:29:08;12.63;;;4.57;;
21152;SDS011;10734;44.792;20.482;2023-05-21T14:31:36;8.07;;;4.55;;
21152;SDS011;10734;44.792;20.482;2023-05-21T14:34:04;7.45;;;4.00;;
21152;SDS011;10734;44.792;20.482;2023-05-21T14:36:34;10.53;;;4.40;;
21152;SDS011;10734;44.792;20.482;2023-05-21T14:39:01;12.60;;;4.00;;
21152;SDS011;10734;44.792;20.482;2023-05-21T14:41:28;12.60;;;4.10;;
21152;SDS011;10734;44.792;20.482;2023-05-21T14:43:56;6.85;;;4.63;;
21152;SDS011;10734;44.792;20.482;2023-05-21T14:46:23;10.23;;;4.45;;
21152;SDS011;10734;44.792;20.482;2023-05-21T14:48:51;9.80;;;4.10;;
21152;SDS011;10734;44.792;20.482;2023-05-21T14:51:20;10.25;;;4.53;;
21152;SDS011;10734;44.792;20.482;2023-05-21T14:53:47;8.45;;;4.43;;
21152;SDS011;10734;44.792;20.482;2023-05-21T14:56:17;8.40;;;4.67;;
21152;SDS011;10734;44.792;20.482;2023-05-21T14:58:47;12.13;;;4.03;;
21152;SDS011;10734;44.792;20.482;2023-05-21T15:01:15;7.95;;;4.32;;
21152;SDS011;10734;44.792;20.482;2023-05-21T15:03:41;9.45;;;4.10;;
21152;SDS011;10734;44.792;20.482;2023-05-21T15:06:09;17.48;;;4.45;;